K3GM Weather Reports


Display with metric or nautical units.
time (UTC)temp
F
wind
direction
speed
MPH
gust
MPH
rain 1hr
in
rain 24hr
in
rain mn
in
humidity
%
barometer
mb
20200331110030 44 76 1.0 4.0 0.00 0.13 0.01 98 1016.4
20200331104622 44 0 0.0 2.0 0.00 0.13 0.01 98 1016.4
20200331103040 44 0 0.0 0.0 0.00 0.13 0.01 98 1016.3
20200331101641 44 0 0.0 4.0 0.00 0.13 0.01 98 1016.1
20200331100021 44 0 0.0 2.0 0.00 0.13 0.01 98 1015.8
20200331094548 44 0 0.0 2.0 0.00 0.13 0.01 98 1015.7
20200331093048 44 114 1.0 5.0 0.01 0.13 0.01 98 1015.4
20200331091543 45 0 0.0 2.0 0.01 0.13 0.01 98 1015.3
20200331090113 45 0 0.0 3.0 0.01 0.13 0.01 98 1015.1
20200331084535 45 0 0.0 2.0 0.01 0.13 0.01 98 1015.1
20200331083210 46 0 0.0 2.0 0.00 0.12 0.00 98 1014.9
20200331081635 46 0 0.0 0.0 0.00 0.12 0.00 98 1014.9
20200331080026 46 0 0.0 0.0 0.00 0.12 0.00 98 1015.0
20200331074552 46 0 0.0 0.0 0.00 0.12 0.00 98 1015.1
20200331073055 46 0 0.0 0.0 0.00 0.12 0.00 98 1015.3
20200331071534 46 0 0.0 0.0 0.00 0.12 0.00 98 1015.2
20200331070044 46 0 0.0 0.0 0.00 0.12 0.00 98 1015.3
20200331064532 46 0 0.0 3.0 0.00 0.12 0.00 98 1015.1
20200331063029 46 0 0.0 0.0 0.00 0.12 0.00 98 1015.3
20200331061525 46 0 0.0 2.0 0.00 0.12 0.00 98 1014.9
20200331060126 46 0 0.0 0.0 0.00 0.12 0.00 98 1015.0
20200331054529 46 0 0.0 0.0 0.00 0.12 0.00 98 1014.8
20200331053028 46 0 0.0 1.0 0.00 0.12 0.00 98 1015.1
20200331051531 46 0 0.0 2.0 0.00 0.12 0.00 98 1015.0
20200331050025 46 0 0.0 0.0 0.00 0.12 0.00 98 1015.2
20200331044530 46 0 0.0 3.0 0.00 0.12 0.00 98 1015.5
20200331043033 46 0 0.0 4.0 0.00 0.12 0.00 98 1015.3
20200331041524 46 0 0.0 3.0 0.00 0.12 0.00 98 1015.5
20200331040031 46 0 0.0 3.0 0.00 0.12 0.00 98 1015.6
20200331034545 47 110 0.0 3.0 0.00 0.12 0.12 98 1015.7
20200331033048 47 0 0.0 0.0 0.00 0.12 0.12 98 1015.7
20200331031553 46 0 0.0 0.0 0.00 0.12 0.12 97 1015.6
20200331030135 46 0 0.0 2.0 0.00 0.12 0.12 97 1015.5
20200331024626 46 0 0.0 2.0 0.00 0.12 0.12 97 1015.4
20200331023024 46 0 0.0 2.0 0.00 0.12 0.12 97 1015.4
20200331021521 46 0 0.0 3.0 0.00 0.12 0.12 97 1015.5
20200331020024 46 0 0.0 3.0 0.00 0.12 0.12 97 1015.5
20200331014537 47 0 0.0 4.0 0.00 0.12 0.12 96 1015.4
20200331013025 47 167 0.0 3.0 0.00 0.12 0.12 96 1015.5
20200331011542 48 0 1.0 5.0 0.00 0.12 0.12 96 1015.5
20200331010111 48 0 0.0 3.0 0.00 0.12 0.12 96 1015.5
20200331004531 48 0 0.0 6.0 0.00 0.12 0.12 95 1015.1
20200331003055 49 0 0.0 2.0 0.00 0.12 0.12 95 1015.0
20200331001529 49 0 1.0 5.0 0.00 0.12 0.12 95 1014.6
20200330234541 51 0 0.0 2.0 0.00 0.12 0.12 94 1014.2
20200330233031 51 0 0.0 4.0 0.00 0.12 0.12 94 1014.0
20200330231525 52 0 0.0 0.0 0.00 0.12 0.12 94 1013.7
20200330230043 52 0 0.0 0.0 0.00 0.12 0.12 94 1013.6
20200330224545 52 0 0.0 0.0 0.00 0.12 0.12 94 1013.6
20200330223020 52 0 0.0 0.0 0.00 0.12 0.12 94 1013.2
20200330221521 52 0 0.0 0.0 0.01 0.12 0.12 94 1012.9
20200330220024 52 0 0.0 0.0 0.07 0.12 0.12 94 1012.5
20200330214558 52 0 0.0 2.0 0.08 0.12 0.12 94 1012.3
20200330213017 52 0 0.0 3.0 0.09 0.12 0.12 93 1012.3
20200330211522 52 106 0.0 3.0 0.07 0.10 0.10 92 1012.1
20200330210036 53 0 0.0 3.0 0.02 0.05 0.05 90 1011.8
20200330204552 53 90 0.0 2.0 0.01 0.04 0.04 89 1011.4
20200330203053 53 0 0.0 1.0 0.02 0.03 0.03 89 1011.2
20200330201527 53 0 0.0 2.0 0.03 0.03 0.03 89 1011.4
20200330200021 52 119 1.0 7.0 0.03 0.03 0.03 88 1011.1
20200330194518 53 0 0.0 3.0 0.03 0.03 0.03 86 1011.5
20200330193037 54 101 0.0 3.0 0.01 0.01 0.01 82 1011.6
20200330191519 54 0 0.0 4.0 0.00 0.00 0.00 80 1011.8
20200330190031 54 9 1.0 4.0 0.00 0.00 0.00 80 1012.1
20200330184520 54 32 0.0 4.0 0.00 0.00 0.00 80 1012.1
20200330183024 54 0 0.0 1.0 0.00 0.00 0.00 80 1012.5
20200330181524 54 0 0.0 2.0 0.00 0.00 0.00 80 1012.6
20200330180110 54 0 0.0 2.0 0.00 0.00 0.00 80 1012.4
20200330174535 54 174 0.0 3.0 0.00 0.00 0.00 80 1012.8
20200330173030 53 0 0.0 2.0 0.00 0.00 0.00 82 1013.4
20200330171524 53 0 0.0 4.0 0.00 0.00 0.00 85 1013.4
20200330170027 52 164 0.0 2.0 0.00 0.00 0.00 86 1013.4
20200330164520 52 0 0.0 4.0 0.00 0.00 0.00 87 1013.6
20200330163020 51 182 1.0 3.0 0.00 0.00 0.00 87 1013.6
20200330161518 51 195 0.0 4.0 0.00 0.00 0.00 89 1014.1
20200330160020 50 178 0.0 3.0 0.00 0.00 0.00 91 1014.1
20200330154533 50 0 0.0 4.0 0.00 0.00 0.00 93 1014.4
20200330153044 49 0 0.0 4.0 0.00 0.00 0.00 94 1014.5
20200330151604 49 162 0.0 4.0 0.00 0.00 0.00 95 1014.7
20200330150059 49 0 0.0 3.0 0.00 0.00 0.00 95 1014.9
20200330144545 48 0 0.0 3.0 0.00 0.00 0.00 96 1015.2
20200330143022 48 187 0.0 2.0 0.00 0.00 0.00 96 1015.5
20200330141546 48 0 0.0 2.0 0.00 0.00 0.00 96 1015.5
20200330140032 48 0 0.0 3.0 0.00 0.00 0.00 97 1015.7
20200330134528 47 0 0.0 3.0 0.00 0.00 0.00 97 1015.8
20200330133019 47 0 0.0 2.0 0.00 0.00 0.00 97 1015.7
20200330131519 47 0 1.0 4.0 0.00 0.00 0.00 97 1015.8
20200330130055 47 145 0.0 3.0 0.00 0.00 0.00 97 1015.9
20200330124523 47 0 0.0 3.0 0.00 0.00 0.00 97 1015.8
20200330123047 47 0 0.0 0.0 0.00 0.00 0.00 97 1016.0
20200330121624 47 0 0.0 2.0 0.00 0.00 0.00 97 1016.2
20200330120029 47 0 0.0 1.0 0.00 0.00 0.00 97 1015.9
20200330114551 47 0 0.0 2.0 0.00 0.00 0.00 97 1015.8
20200330113022 47 0 0.0 0.0 0.00 0.00 0.00 97 1015.7
20200330111519 47 0 0.0 0.0 0.00 0.00 0.00 97 1015.3